sensor_id;sensor_type;location;lat;lon;timestamp;P1;durP1;ratioP1;P2;durP2;ratioP2
23206;SDS011;11773;52.570;13.052;2022-07-11T00:01:52;0.20;;;0.20;;
23206;SDS011;11773;52.570;13.052;2022-07-11T00:04:23;0.20;;;0.20;;
23206;SDS011;11773;52.570;13.052;2022-07-11T00:06:52;0.57;;;0.50;;
23206;SDS011;11773;52.570;13.052;2022-07-11T00:09:22;0.20;;;0.20;;
23206;SDS011;11773;52.570;13.052;2022-07-11T00:11:52;0.47;;;0.30;;
23206;SDS011;11773;52.570;13.052;2022-07-11T00:14:22;0.67;;;0.30;;
23206;SDS011;11773;52.570;13.052;2022-07-11T00:16:52;0.77;;;0.30;;
23206;SDS011;11773;52.570;13.052;2022-07-11T00:19:22;0.20;;;0.20;;
23206;SDS011;11773;52.570;13.052;2022-07-11T00:21:52;0.57;;;0.40;;
23206;SDS011;11773;52.570;13.052;2022-07-11T00:24:21;0.30;;;0.30;;
23206;SDS011;11773;52.570;13.052;2022-07-11T00:26:51;0.30;;;0.30;;
23206;SDS011;11773;52.570;13.052;2022-07-11T00:29:21;0.37;;;0.30;;
23206;SDS011;11773;52.570;13.052;2022-07-11T00:31:50;0.20;;;0.20;;
23206;SDS011;11773;52.570;13.052;2022-07-11T00:34:20;0.40;;;0.30;;
23206;SDS011;11773;52.570;13.052;2022-07-11T00:36:49;0.47;;;0.30;;
23206;SDS011;11773;52.570;13.052;2022-07-11T00:39:19;0.83;;;0.20;;
23206;SDS011;11773;52.570;13.052;2022-07-11T00:41:48;0.10;;;0.10;;
23206;SDS011;11773;52.570;13.052;2022-07-11T00:44:18;1.07;;;0.40;;
23206;SDS011;11773;52.570;13.052;2022-07-11T00:46:47;0.43;;;0.37;;
23206;SDS011;11773;52.570;13.052;2022-07-11T00:49:17;0.37;;;0.20;;
23206;SDS011;11773;52.570;13.052;2022-07-11T00:51:47;0.20;;;0.13;;
23206;SDS011;11773;52.570;13.052;2022-07-11T00:54:18;0.20;;;0.20;;
23206;SDS011;11773;52.570;13.052;2022-07-11T00:56:50;0.43;;;0.40;;
23206;SDS011;11773;52.570;13.052;2022-07-11T00:59:20;0.30;;;0.30;;
23206;SDS011;11773;52.570;13.052;2022-07-11T01:01:50;0.47;;;0.33;;
23206;SDS011;11773;52.570;13.052;2022-07-11T01:04:19;0.30;;;0.30;;
23206;SDS011;11773;52.570;13.052;2022-07-11T01:06:50;0.30;;;0.30;;
23206;SDS011;11773;52.570;13.052;2022-07-11T01:09:20;0.30;;;0.30;;
23206;SDS011;11773;52.570;13.052;2022-07-11T01:11:49;0.30;;;0.30;;
23206;SDS011;11773;52.570;13.052;2022-07-11T01:14:19;0.30;;;0.30;;
23206;SDS011;11773;52.570;13.052;2022-07-11T01:16:48;0.40;;;0.30;;
23206;SDS011;11773;52.570;13.052;2022-07-11T01:19:18;0.47;;;0.30;;
23206;SDS011;11773;52.570;13.052;2022-07-11T01:21:49;0.27;;;0.20;;
23206;SDS011;11773;52.570;13.052;2022-07-11T01:24:22;0.27;;;0.20;;
23206;SDS011;11773;52.570;13.052;2022-07-11T01:26:52;0.53;;;0.30;;
23206;SDS011;11773;52.570;13.052;2022-07-11T01:29:23;0.30;;;0.30;;
23206;SDS011;11773;52.570;13.052;2022-07-11T01:31:52;0.50;;;0.20;;
23206;SDS011;11773;52.570;13.052;2022-07-11T01:34:22;0.10;;;0.10;;
23206;SDS011;11773;52.570;13.052;2022-07-11T01:36:51;0.37;;;0.20;;
23206;SDS011;11773;52.570;13.052;2022-07-11T01:39:21;0.53;;;0.23;;
23206;SDS011;11773;52.570;13.052;2022-07-11T01:41:50;0.10;;;0.10;;
23206;SDS011;11773;52.570;13.052;2022-07-11T01:44:20;0.43;;;0.40;;
23206;SDS011;11773;52.570;13.052;2022-07-11T01:46:49;0.30;;;0.30;;
23206;SDS011;11773;52.570;13.052;2022-07-11T01:49:19;0.10;;;0.10;;
23206;SDS011;11773;52.570;13.052;2022-07-11T01:51:48;0.13;;;0.10;;
23206;SDS011;11773;52.570;13.052;2022-07-11T01:54:18;0.10;;;0.10;;
23206;SDS011;11773;52.570;13.052;2022-07-11T01:56:47;0.30;;;0.30;;
23206;SDS011;11773;52.570;13.052;2022-07-11T01:59:17;1.10;;;0.30;;
23206;SDS011;11773;52.570;13.052;2022-07-11T02:01:46;0.47;;;0.30;;
23206;SDS011;11773;52.570;13.052;2022-07-11T02:04:16;0.23;;;0.20;;
23206;SDS011;11773;52.570;13.052;2022-07-11T02:06:46;0.53;;;0.20;;
23206;SDS011;11773;52.570;13.052;2022-07-11T02:09:16;0.50;;;0.40;;
23206;SDS011;11773;52.570;13.052;2022-07-11T02:11:45;0.23;;;0.20;;
23206;SDS011;11773;52.570;13.052;2022-07-11T02:14:15;0.30;;;0.30;;
23206;SDS011;11773;52.570;13.052;2022-07-11T02:16:44;0.57;;;0.20;;
23206;SDS011;11773;52.570;13.052;2022-07-11T02:19:14;0.30;;;0.20;;
23206;SDS011;11773;52.570;13.052;2022-07-11T02:21:43;0.20;;;0.20;;
23206;SDS011;11773;52.570;13.052;2022-07-11T02:24:13;0.20;;;0.20;;
23206;SDS011;11773;52.570;13.052;2022-07-11T02:26:42;0.30;;;0.30;;
23206;SDS011;11773;52.570;13.052;2022-07-11T02:29:12;0.40;;;0.23;;
23206;SDS011;11773;52.570;13.052;2022-07-11T02:31:41;0.20;;;0.20;;
23206;SDS011;11773;52.570;13.052;2022-07-11T02:34:11;0.30;;;0.20;;
23206;SDS011;11773;52.570;13.052;2022-07-11T02:36:40;0.83;;;0.40;;
23206;SDS011;11773;52.570;13.052;2022-07-11T02:39:10;0.20;;;0.20;;
23206;SDS011;11773;52.570;13.052;2022-07-11T02:41:39;0.30;;;0.30;;
23206;SDS011;11773;52.570;13.052;2022-07-11T02:44:09;0.73;;;0.30;;
23206;SDS011;11773;52.570;13.052;2022-07-11T02:46:38;0.20;;;0.20;;
23206;SDS011;11773;52.570;13.052;2022-07-11T02:49:08;0.47;;;0.30;;
23206;SDS011;11773;52.570;13.052;2022-07-11T02:51:38;0.40;;;0.30;;
23206;SDS011;11773;52.570;13.052;2022-07-11T02:54:07;0.30;;;0.30;;
23206;SDS011;11773;52.570;13.052;2022-07-11T02:56:36;0.20;;;0.20;;
23206;SDS011;11773;52.570;13.052;2022-07-11T02:59:06;0.40;;;0.30;;
23206;SDS011;11773;52.570;13.052;2022-07-11T03:01:36;0.30;;;0.30;;
23206;SDS011;11773;52.570;13.052;2022-07-11T03:04:07;0.40;;;0.40;;
23206;SDS011;11773;52.570;13.052;2022-07-11T03:06:37;0.20;;;0.20;;
23206;SDS011;11773;52.570;13.052;2022-07-11T03:09:08;0.30;;;0.30;;
23206;SDS011;11773;52.570;13.052;2022-07-11T03:11:38;0.33;;;0.30;;
23206;SDS011;11773;52.570;13.052;2022-07-11T03:14:07;0.20;;;0.20;;
23206;SDS011;11773;52.570;13.052;2022-07-11T03:16:37;0.20;;;0.20;;
23206;SDS011;11773;52.570;13.052;2022-07-11T03:19:06;0.90;;;0.40;;
23206;SDS011;11773;52.570;13.052;2022-07-11T03:21:36;0.30;;;0.30;;
23206;SDS011;11773;52.570;13.052;2022-07-11T03:24:05;0.83;;;0.50;;
23206;SDS011;11773;52.570;13.052;2022-07-11T03:26:35;0.30;;;0.30;;
23206;SDS011;11773;52.570;13.052;2022-07-11T03:29:05;1.20;;;0.37;;
23206;SDS011;11773;52.570;13.052;2022-07-11T03:31:35;0.37;;;0.37;;
23206;SDS011;11773;52.570;13.052;2022-07-11T03:34:04;0.30;;;0.20;;
23206;SDS011;11773;52.570;13.052;2022-07-11T03:36:34;0.40;;;0.40;;
23206;SDS011;11773;52.570;13.052;2022-07-11T03:39:03;0.27;;;0.27;;
23206;SDS011;11773;52.570;13.052;2022-07-11T03:41:33;0.30;;;0.30;;
23206;SDS011;11773;52.570;13.052;2022-07-11T03:44:03;0.30;;;0.30;;
23206;SDS011;11773;52.570;13.052;2022-07-11T03:46:33;0.40;;;0.40;;
23206;SDS011;11773;52.570;13.052;2022-07-11T03:49:03;0.37;;;0.20;;
23206;SDS011;11773;52.570;13.052;2022-07-11T03:51:32;0.43;;;0.40;;
23206;SDS011;11773;52.570;13.052;2022-07-11T03:54:02;0.43;;;0.43;;
23206;SDS011;11773;52.570;13.052;2022-07-11T03:56:32;0.30;;;0.30;;
23206;SDS011;11773;52.570;13.052;2022-07-11T03:59:01;0.80;;;0.50;;
23206;SDS011;11773;52.570;13.052;2022-07-11T04:01:31;0.20;;;0.20;;
23206;SDS011;11773;52.570;13.052;2022-07-11T04:04:00;0.20;;;0.20;;
23206;SDS011;11773;52.570;13.052;2022-07-11T04:06:30;1.13;;;0.60;;
23206;SDS011;11773;52.570;13.052;2022-07-11T04:08:59;0.77;;;0.50;;
23206;SDS011;11773;52.570;13.052;2022-07-11T04:11:29;0.30;;;0.30;;
23206;SDS011;11773;52.570;13.052;2022-07-11T04:13:58;0.63;;;0.50;;
23206;SDS011;11773;52.570;13.052;2022-07-11T04:16:28;0.40;;;0.20;;
23206;SDS011;11773;52.570;13.052;2022-07-11T04:18:57;0.60;;;0.40;;
23206;SDS011;11773;52.570;13.052;2022-07-11T04:21:27;0.40;;;0.40;;
23206;SDS011;11773;52.570;13.052;2022-07-11T04:23:56;0.30;;;0.30;;
23206;SDS011;11773;52.570;13.052;2022-07-11T04:26:26;0.40;;;0.40;;
23206;SDS011;11773;52.570;13.052;2022-07-11T04:28:55;0.30;;;0.30;;
23206;SDS011;11773;52.570;13.052;2022-07-11T04:31:25;0.53;;;0.40;;
23206;SDS011;11773;52.570;13.052;2022-07-11T04:33:54;0.67;;;0.50;;
23206;SDS011;11773;52.570;13.052;2022-07-11T04:36:24;0.80;;;0.50;;
23206;SDS011;11773;52.570;13.052;2022-07-11T04:38:53;0.30;;;0.30;;
23206;SDS011;11773;52.570;13.052;2022-07-11T04:41:23;0.40;;;0.40;;
23206;SDS011;11773;52.570;13.052;2022-07-11T04:43:53;0.70;;;0.50;;
23206;SDS011;11773;52.570;13.052;2022-07-11T04:46:23;0.50;;;0.30;;
23206;SDS011;11773;52.570;13.052;2022-07-11T04:48:53;0.87;;;0.43;;
23206;SDS011;11773;52.570;13.052;2022-07-11T04:51:23;0.60;;;0.50;;
23206;SDS011;11773;52.570;13.052;2022-07-11T04:53:53;0.57;;;0.30;;
23206;SDS011;11773;52.570;13.052;2022-07-11T04:56:22;1.10;;;0.70;;
23206;SDS011;11773;52.570;13.052;2022-07-11T04:58:52;0.40;;;0.40;;
23206;SDS011;11773;52.570;13.052;2022-07-11T05:01:22;0.20;;;0.20;;
23206;SDS011;11773;52.570;13.052;2022-07-11T05:03:51;1.27;;;0.50;;
23206;SDS011;11773;52.570;13.052;2022-07-11T05:06:21;0.90;;;0.67;;
23206;SDS011;11773;52.570;13.052;2022-07-11T05:08:50;0.67;;;0.47;;
23206;SDS011;11773;52.570;13.052;2022-07-11T05:11:21;1.47;;;0.60;;
23206;SDS011;11773;52.570;13.052;2022-07-11T05:13:52;0.70;;;0.60;;
23206;SDS011;11773;52.570;13.052;2022-07-11T05:16:21;1.33;;;0.80;;
23206;SDS011;11773;52.570;13.052;2022-07-11T05:18:51;1.63;;;0.57;;
23206;SDS011;11773;52.570;13.052;2022-07-11T05:21:21;1.00;;;0.80;;
23206;SDS011;11773;52.570;13.052;2022-07-11T05:23:51;0.97;;;0.70;;
23206;SDS011;11773;52.570;13.052;2022-07-11T05:26:20;1.53;;;0.97;;
23206;SDS011;11773;52.570;13.052;2022-07-11T05:28:50;1.23;;;0.90;;
23206;SDS011;11773;52.570;13.052;2022-07-11T05:31:20;0.70;;;0.70;;
23206;SDS011;11773;52.570;13.052;2022-07-11T05:33:49;1.30;;;1.10;;
23206;SDS011;11773;52.570;13.052;2022-07-11T05:36:19;0.80;;;0.80;;
23206;SDS011;11773;52.570;13.052;2022-07-11T05:38:48;0.90;;;0.90;;
23206;SDS011;11773;52.570;13.052;2022-07-11T05:41:18;0.77;;;0.70;;
23206;SDS011;11773;52.570;13.052;2022-07-11T05:43:47;1.50;;;0.73;;
23206;SDS011;11773;52.570;13.052;2022-07-11T05:46:17;1.90;;;1.00;;
23206;SDS011;11773;52.570;13.052;2022-07-11T05:48:46;2.27;;;1.20;;
23206;SDS011;11773;52.570;13.052;2022-07-11T05:51:18;1.17;;;0.80;;
23206;SDS011;11773;52.570;13.052;2022-07-11T05:53:48;1.50;;;0.87;;
23206;SDS011;11773;52.570;13.052;2022-07-11T05:56:17;1.53;;;0.80;;
23206;SDS011;11773;52.570;13.052;2022-07-11T05:58:46;0.90;;;0.73;;
23206;SDS011;11773;52.570;13.052;2022-07-11T06:01:16;1.27;;;0.67;;
23206;SDS011;11773;52.570;13.052;2022-07-11T06:03:46;1.57;;;0.90;;
23206;SDS011;11773;52.570;13.052;2022-07-11T06:06:16;1.00;;;0.90;;
23206;SDS011;11773;52.570;13.052;2022-07-11T06:08:46;1.03;;;0.83;;
23206;SDS011;11773;52.570;13.052;2022-07-11T06:11:15;0.77;;;0.67;;
23206;SDS011;11773;52.570;13.052;2022-07-11T06:13:45;1.13;;;0.80;;
23206;SDS011;11773;52.570;13.052;2022-07-11T06:16:19;1.23;;;0.90;;
23206;SDS011;11773;52.570;13.052;2022-07-11T06:18:49;2.23;;;1.00;;
23206;SDS011;11773;52.570;13.052;2022-07-11T06:21:19;0.80;;;0.70;;
23206;SDS011;11773;52.570;13.052;2022-07-11T06:23:49;2.20;;;0.90;;
23206;SDS011;11773;52.570;13.052;2022-07-11T06:26:18;0.80;;;0.67;;
23206;SDS011;11773;52.570;13.052;2022-07-11T06:28:49;0.90;;;0.80;;
23206;SDS011;11773;52.570;13.052;2022-07-11T06:31:19;1.50;;;1.03;;
23206;SDS011;11773;52.570;13.052;2022-07-11T06:33:48;1.07;;;0.77;;
23206;SDS011;11773;52.570;13.052;2022-07-11T06:36:21;0.70;;;0.60;;
23206;SDS011;11773;52.570;13.052;2022-07-11T06:38:54;1.63;;;0.80;;
23206;SDS011;11773;52.570;13.052;2022-07-11T06:41:23;1.03;;;0.80;;
23206;SDS011;11773;52.570;13.052;2022-07-11T06:43:53;0.60;;;0.60;;
23206;SDS011;11773;52.570;13.052;2022-07-11T06:46:22;1.13;;;0.90;;
23206;SDS011;11773;52.570;13.052;2022-07-11T06:48:54;1.30;;;0.97;;
23206;SDS011;11773;52.570;13.052;2022-07-11T06:51:23;2.00;;;0.93;;
23206;SDS011;11773;52.570;13.052;2022-07-11T06:53:53;1.10;;;1.00;;
23206;SDS011;11773;52.570;13.052;2022-07-11T06:56:22;2.37;;;1.10;;
23206;SDS011;11773;52.570;13.052;2022-07-11T06:58:52;1.27;;;0.90;;
23206;SDS011;11773;52.570;13.052;2022-07-11T07:01:21;1.23;;;0.70;;
23206;SDS011;11773;52.570;13.052;2022-07-11T07:03:51;1.20;;;0.80;;
23206;SDS011;11773;52.570;13.052;2022-07-11T07:06:20;1.83;;;0.90;;
23206;SDS011;11773;52.570;13.052;2022-07-11T07:08:50;1.50;;;0.70;;
23206;SDS011;11773;52.570;13.052;2022-07-11T07:11:19;2.33;;;0.80;;
23206;SDS011;11773;52.570;13.052;2022-07-11T07:13:52;0.67;;;0.67;;
23206;SDS011;11773;52.570;13.052;2022-07-11T07:16:21;0.90;;;0.70;;
23206;SDS011;11773;52.570;13.052;2022-07-11T07:18:51;2.37;;;1.00;;
23206;SDS011;11773;52.570;13.052;2022-07-11T07:21:20;1.27;;;0.90;;
23206;SDS011;11773;52.570;13.052;2022-07-11T07:23:50;1.00;;;0.70;;
23206;SDS011;11773;52.570;13.052;2022-07-11T07:26:20;1.47;;;0.77;;
23206;SDS011;11773;52.570;13.052;2022-07-11T07:28:49;1.33;;;0.90;;
23206;SDS011;11773;52.570;13.052;2022-07-11T07:31:19;2.00;;;0.77;;
23206;SDS011;11773;52.570;13.052;2022-07-11T07:33:49;1.13;;;0.83;;
23206;SDS011;11773;52.570;13.052;2022-07-11T07:36:20;1.80;;;0.80;;
23206;SDS011;11773;52.570;13.052;2022-07-11T07:38:49;1.27;;;1.00;;
23206;SDS011;11773;52.570;13.052;2022-07-11T07:41:19;1.80;;;0.80;;
23206;SDS011;11773;52.570;13.052;2022-07-11T07:43:48;1.60;;;0.87;;
23206;SDS011;11773;52.570;13.052;2022-07-11T07:46:18;1.40;;;0.70;;
23206;SDS011;11773;52.570;13.052;2022-07-11T07:48:49;2.23;;;1.00;;
23206;SDS011;11773;52.570;13.052;2022-07-11T07:51:19;1.43;;;0.70;;
23206;SDS011;11773;52.570;13.052;2022-07-11T07:53:49;1.03;;;0.67;;
23206;SDS011;11773;52.570;13.052;2022-07-11T07:56:20;0.97;;;0.70;;
23206;SDS011;11773;52.570;13.052;2022-07-11T07:58:49;0.83;;;0.80;;
23206;SDS011;11773;52.570;13.052;2022-07-11T08:01:19;1.40;;;0.70;;
23206;SDS011;11773;52.570;13.052;2022-07-11T08:04:06;1.00;;;0.80;;
23206;SDS011;11773;52.570;13.052;2022-07-11T08:06:37;1.33;;;0.77;;
23206;SDS011;11773;52.570;13.052;2022-07-11T08:09:07;1.53;;;0.77;;
23206;SDS011;11773;52.570;13.052;2022-07-11T08:11:37;1.00;;;0.70;;
23206;SDS011;11773;52.570;13.052;2022-07-11T08:14:07;1.27;;;0.70;;
23206;SDS011;11773;52.570;13.052;2022-07-11T08:16:36;2.10;;;0.70;;
23206;SDS011;11773;52.570;13.052;2022-07-11T08:19:06;1.10;;;0.90;;
23206;SDS011;11773;52.570;13.052;2022-07-11T08:21:39;1.03;;;0.70;;
23206;SDS011;11773;52.570;13.052;2022-07-11T08:24:09;1.50;;;0.80;;
23206;SDS011;11773;52.570;13.052;2022-07-11T08:26:38;2.13;;;1.07;;
23206;SDS011;11773;52.570;13.052;2022-07-11T08:29:08;0.93;;;0.73;;
23206;SDS011;11773;52.570;13.052;2022-07-11T08:31:37;1.07;;;0.73;;
23206;SDS011;11773;52.570;13.052;2022-07-11T08:34:07;1.07;;;0.60;;
23206;SDS011;11773;52.570;13.052;2022-07-11T08:36:38;1.93;;;1.00;;
23206;SDS011;11773;52.570;13.052;2022-07-11T08:39:07;0.67;;;0.60;;
23206;SDS011;11773;52.570;13.052;2022-07-11T08:41:38;1.47;;;0.73;;
23206;SDS011;11773;52.570;13.052;2022-07-11T08:44:12;0.90;;;0.60;;
23206;SDS011;11773;52.570;13.052;2022-07-11T08:46:43;1.07;;;0.80;;
23206;SDS011;11773;52.570;13.052;2022-07-11T08:49:13;1.30;;;0.77;;
23206;SDS011;11773;52.570;13.052;2022-07-11T08:51:43;0.93;;;0.83;;
23206;SDS011;11773;52.570;13.052;2022-07-11T08:54:14;1.30;;;0.77;;
23206;SDS011;11773;52.570;13.052;2022-07-11T08:56:44;1.10;;;0.90;;
23206;SDS011;11773;52.570;13.052;2022-07-11T08:59:16;0.83;;;0.63;;
23206;SDS011;11773;52.570;13.052;2022-07-11T09:01:46;1.37;;;0.80;;
23206;SDS011;11773;52.570;13.052;2022-07-11T09:04:21;1.57;;;0.80;;
23206;SDS011;11773;52.570;13.052;2022-07-11T09:06:52;1.73;;;0.70;;
23206;SDS011;11773;52.570;13.052;2022-07-11T09:09:21;0.60;;;0.50;;
23206;SDS011;11773;52.570;13.052;2022-07-11T09:11:52;0.53;;;0.53;;
23206;SDS011;11773;52.570;13.052;2022-07-11T09:14:32;1.40;;;1.00;;
23206;SDS011;11773;52.570;13.052;2022-07-11T09:17:01;1.03;;;0.80;;
23206;SDS011;11773;52.570;13.052;2022-07-11T09:19:34;0.67;;;0.60;;
23206;SDS011;11773;52.570;13.052;2022-07-11T09:22:08;0.87;;;0.73;;
23206;SDS011;11773;52.570;13.052;2022-07-11T09:25:00;1.40;;;0.90;;
23206;SDS011;11773;52.570;13.052;2022-07-11T09:27:50;0.80;;;0.70;;
23206;SDS011;11773;52.570;13.052;2022-07-11T09:30:28;1.20;;;0.73;;
23206;SDS011;11773;52.570;13.052;2022-07-11T09:33:11;0.80;;;0.70;;
23206;SDS011;11773;52.570;13.052;2022-07-11T09:35:43;1.20;;;0.80;;
23206;SDS011;11773;52.570;13.052;2022-07-11T09:38:14;1.20;;;0.70;;
23206;SDS011;11773;52.570;13.052;2022-07-11T09:40:47;1.43;;;0.70;;
23206;SDS011;11773;52.570;13.052;2022-07-11T09:43:24;0.50;;;0.50;;
23206;SDS011;11773;52.570;13.052;2022-07-11T09:46:04;1.90;;;0.90;;
23206;SDS011;11773;52.570;13.052;2022-07-11T09:48:33;1.30;;;0.70;;
23206;SDS011;11773;52.570;13.052;2022-07-11T09:51:03;0.90;;;0.50;;
23206;SDS011;11773;52.570;13.052;2022-07-11T09:53:32;0.60;;;0.60;;
23206;SDS011;11773;52.570;13.052;2022-07-11T09:56:03;0.63;;;0.63;;
23206;SDS011;11773;52.570;13.052;2022-07-11T09:58:35;0.53;;;0.53;;
23206;SDS011;11773;52.570;13.052;2022-07-11T10:01:04;1.40;;;0.60;;
23206;SDS011;11773;52.570;13.052;2022-07-11T10:03:34;0.73;;;0.40;;
23206;SDS011;11773;52.570;13.052;2022-07-11T10:06:05;1.93;;;0.60;;
23206;SDS011;11773;52.570;13.052;2022-07-11T10:08:35;0.97;;;0.50;;
23206;SDS011;11773;52.570;13.052;2022-07-11T10:11:05;0.93;;;0.80;;
23206;SDS011;11773;52.570;13.052;2022-07-11T10:13:36;0.53;;;0.50;;
23206;SDS011;11773;52.570;13.052;2022-07-11T10:16:15;0.70;;;0.50;;
23206;SDS011;11773;52.570;13.052;2022-07-11T10:19:02;0.70;;;0.50;;
23206;SDS011;11773;52.570;13.052;2022-07-11T10:21:52;1.00;;;0.70;;
23206;SDS011;11773;52.570;13.052;2022-07-11T10:24:32;0.83;;;0.50;;
23206;SDS011;11773;52.570;13.052;2022-07-11T10:27:18;0.40;;;0.40;;
23206;SDS011;11773;52.570;13.052;2022-07-11T10:29:49;0.87;;;0.50;;
23206;SDS011;11773;52.570;13.052;2022-07-11T10:32:20;0.70;;;0.50;;
23206;SDS011;11773;52.570;13.052;2022-07-11T10:37:48;0.70;;;0.70;;
23206;SDS011;11773;52.570;13.052;2022-07-11T10:40:40;0.40;;;0.40;;
23206;SDS011;11773;52.570;13.052;2022-07-11T10:46:09;0.70;;;0.50;;
23206;SDS011;11773;52.570;13.052;2022-07-11T10:48:51;0.77;;;0.77;;
23206;SDS011;11773;52.570;13.052;2022-07-11T10:51:54;0.73;;;0.37;;
23206;SDS011;11773;52.570;13.052;2022-07-11T11:00:12;0.57;;;0.50;;
23206;SDS011;11773;52.570;13.052;2022-07-11T11:03:01;0.50;;;0.50;;
23206;SDS011;11773;52.570;13.052;2022-07-11T11:05:44;0.30;;;0.30;;
23206;SDS011;11773;52.570;13.052;2022-07-11T11:08:43;0.70;;;0.50;;
23206;SDS011;11773;52.570;13.052;2022-07-11T11:16:46;1.50;;;0.57;;
23206;SDS011;11773;52.570;13.052;2022-07-11T11:22:23;1.30;;;0.70;;
23206;SDS011;11773;52.570;13.052;2022-07-11T11:24:53;0.33;;;0.33;;
23206;SDS011;11773;52.570;13.052;2022-07-11T11:27:26;0.40;;;0.40;;
23206;SDS011;11773;52.570;13.052;2022-07-11T11:29:57;0.40;;;0.40;;
23206;SDS011;11773;52.570;13.052;2022-07-11T11:32:29;0.23;;;0.23;;
23206;SDS011;11773;52.570;13.052;2022-07-11T11:35:01;0.40;;;0.40;;
23206;SDS011;11773;52.570;13.052;2022-07-11T11:37:34;1.33;;;0.60;;
23206;SDS011;11773;52.570;13.052;2022-07-11T11:40:04;0.40;;;0.40;;
23206;SDS011;11773;52.570;13.052;2022-07-11T11:42:34;0.57;;;0.57;;
23206;SDS011;11773;52.570;13.052;2022-07-11T11:45:04;0.60;;;0.60;;
23206;SDS011;11773;52.570;13.052;2022-07-11T11:47:35;0.77;;;0.57;;
23206;SDS011;11773;52.570;13.052;2022-07-11T11:50:08;0.50;;;0.50;;
23206;SDS011;11773;52.570;13.052;2022-07-11T11:52:37;0.40;;;0.30;;
23206;SDS011;11773;52.570;13.052;2022-07-11T11:55:07;0.93;;;0.60;;
23206;SDS011;11773;52.570;13.052;2022-07-11T11:57:38;0.60;;;0.43;;
23206;SDS011;11773;52.570;13.052;2022-07-11T12:00:20;0.53;;;0.53;;
23206;SDS011;11773;52.570;13.052;2022-07-11T12:02:59;0.40;;;0.40;;
23206;SDS011;11773;52.570;13.052;2022-07-11T12:05:29;0.40;;;0.40;;
23206;SDS011;11773;52.570;13.052;2022-07-11T12:07:59;0.67;;;0.60;;
23206;SDS011;11773;52.570;13.052;2022-07-11T12:10:29;0.50;;;0.50;;
23206;SDS011;11773;52.570;13.052;2022-07-11T12:13:00;0.40;;;0.40;;
23206;SDS011;11773;52.570;13.052;2022-07-11T12:15:30;0.60;;;0.60;;
23206;SDS011;11773;52.570;13.052;2022-07-11T12:18:03;0.73;;;0.50;;
23206;SDS011;11773;52.570;13.052;2022-07-11T12:20:35;0.73;;;0.60;;
23206;SDS011;11773;52.570;13.052;2022-07-11T12:23:11;0.60;;;0.50;;
23206;SDS011;11773;52.570;13.052;2022-07-11T12:25:48;0.60;;;0.50;;
23206;SDS011;11773;52.570;13.052;2022-07-11T12:28:19;0.30;;;0.30;;
23206;SDS011;11773;52.570;13.052;2022-07-11T12:30:53;0.50;;;0.50;;
23206;SDS011;11773;52.570;13.052;2022-07-11T12:33:25;1.33;;;0.60;;
23206;SDS011;11773;52.570;13.052;2022-07-11T12:35:58;0.50;;;0.50;;
23206;SDS011;11773;52.570;13.052;2022-07-11T12:38:46;0.57;;;0.40;;
23206;SDS011;11773;52.570;13.052;2022-07-11T12:41:20;0.50;;;0.50;;
23206;SDS011;11773;52.570;13.052;2022-07-11T12:43:50;0.63;;;0.50;;
23206;SDS011;11773;52.570;13.052;2022-07-11T12:46:38;0.50;;;0.50;;
23206;SDS011;11773;52.570;13.052;2022-07-11T12:49:10;0.50;;;0.50;;
23206;SDS011;11773;52.570;13.052;2022-07-11T12:51:42;0.40;;;0.40;;
23206;SDS011;11773;52.570;13.052;2022-07-11T12:54:14;0.60;;;0.60;;
23206;SDS011;11773;52.570;13.052;2022-07-11T12:56:51;0.30;;;0.30;;
23206;SDS011;11773;52.570;13.052;2022-07-11T12:59:25;0.60;;;0.50;;
23206;SDS011;11773;52.570;13.052;2022-07-11T13:01:59;0.60;;;0.60;;
23206;SDS011;11773;52.570;13.052;2022-07-11T13:04:37;0.40;;;0.40;;
23206;SDS011;11773;52.570;13.052;2022-07-11T13:07:29;0.53;;;0.50;;
23206;SDS011;11773;52.570;13.052;2022-07-11T13:10:20;2.57;;;0.50;;
23206;SDS011;11773;52.570;13.052;2022-07-11T13:12:53;0.53;;;0.53;;
23206;SDS011;11773;52.570;13.052;2022-07-11T13:15:23;0.57;;;0.57;;
23206;SDS011;11773;52.570;13.052;2022-07-11T13:17:54;0.40;;;0.40;;
23206;SDS011;11773;52.570;13.052;2022-07-11T13:20:25;0.37;;;0.37;;
23206;SDS011;11773;52.570;13.052;2022-07-11T13:22:55;0.50;;;0.40;;
23206;SDS011;11773;52.570;13.052;2022-07-11T13:25:25;0.93;;;0.57;;
23206;SDS011;11773;52.570;13.052;2022-07-11T13:27:56;0.43;;;0.40;;
23206;SDS011;11773;52.570;13.052;2022-07-11T13:30:26;0.73;;;0.60;;
23206;SDS011;11773;52.570;13.052;2022-07-11T13:32:59;0.53;;;0.43;;
23206;SDS011;11773;52.570;13.052;2022-07-11T13:35:29;0.63;;;0.40;;
23206;SDS011;11773;52.570;13.052;2022-07-11T13:37:58;0.63;;;0.40;;
23206;SDS011;11773;52.570;13.052;2022-07-11T13:40:28;0.40;;;0.40;;
23206;SDS011;11773;52.570;13.052;2022-07-11T13:42:59;0.80;;;0.53;;
23206;SDS011;11773;52.570;13.052;2022-07-11T13:45:29;0.53;;;0.50;;
23206;SDS011;11773;52.570;13.052;2022-07-11T13:47:59;0.53;;;0.40;;
23206;SDS011;11773;52.570;13.052;2022-07-11T13:50:28;0.63;;;0.50;;
23206;SDS011;11773;52.570;13.052;2022-07-11T13:52:58;0.33;;;0.33;;
23206;SDS011;11773;52.570;13.052;2022-07-11T13:55:28;0.40;;;0.40;;
23206;SDS011;11773;52.570;13.052;2022-07-11T13:57:58;0.30;;;0.30;;
23206;SDS011;11773;52.570;13.052;2022-07-11T14:00:29;0.60;;;0.37;;
23206;SDS011;11773;52.570;13.052;2022-07-11T14:02:59;0.30;;;0.30;;
23206;SDS011;11773;52.570;13.052;2022-07-11T14:05:29;0.50;;;0.50;;
23206;SDS011;11773;52.570;13.052;2022-07-11T14:07:59;0.40;;;0.40;;
23206;SDS011;11773;52.570;13.052;2022-07-11T14:10:28;0.47;;;0.40;;
23206;SDS011;11773;52.570;13.052;2022-07-11T14:12:57;0.30;;;0.30;;
23206;SDS011;11773;52.570;13.052;2022-07-11T14:15:28;0.40;;;0.40;;
23206;SDS011;11773;52.570;13.052;2022-07-11T14:17:57;0.50;;;0.50;;
23206;SDS011;11773;52.570;13.052;2022-07-11T14:20:27;0.30;;;0.30;;
23206;SDS011;11773;52.570;13.052;2022-07-11T14:22:57;1.00;;;0.60;;
23206;SDS011;11773;52.570;13.052;2022-07-11T14:25:26;0.43;;;0.43;;
23206;SDS011;11773;52.570;13.052;2022-07-11T14:27:56;0.30;;;0.30;;
23206;SDS011;11773;52.570;13.052;2022-07-11T14:30:27;0.40;;;0.40;;
23206;SDS011;11773;52.570;13.052;2022-07-11T14:32:56;0.70;;;0.57;;
23206;SDS011;11773;52.570;13.052;2022-07-11T14:35:26;0.47;;;0.47;;
23206;SDS011;11773;52.570;13.052;2022-07-11T14:37:55;0.57;;;0.43;;
23206;SDS011;11773;52.570;13.052;2022-07-11T14:40:25;0.70;;;0.50;;
23206;SDS011;11773;52.570;13.052;2022-07-11T14:42:55;0.30;;;0.30;;
23206;SDS011;11773;52.570;13.052;2022-07-11T14:45:25;0.93;;;0.70;;
23206;SDS011;11773;52.570;13.052;2022-07-11T14:47:54;0.40;;;0.40;;
23206;SDS011;11773;52.570;13.052;2022-07-11T14:50:24;0.40;;;0.40;;
23206;SDS011;11773;52.570;13.052;2022-07-11T14:52:54;0.63;;;0.50;;
23206;SDS011;11773;52.570;13.052;2022-07-11T14:55:24;0.30;;;0.30;;
23206;SDS011;11773;52.570;13.052;2022-07-11T14:57:53;0.40;;;0.40;;
23206;SDS011;11773;52.570;13.052;2022-07-11T15:00:24;0.47;;;0.40;;
23206;SDS011;11773;52.570;13.052;2022-07-11T15:02:53;0.30;;;0.30;;
23206;SDS011;11773;52.570;13.052;2022-07-11T15:05:41;0.50;;;0.50;;
23206;SDS011;11773;52.570;13.052;2022-07-11T15:08:11;0.60;;;0.60;;
23206;SDS011;11773;52.570;13.052;2022-07-11T15:10:58;0.40;;;0.40;;
23206;SDS011;11773;52.570;13.052;2022-07-11T15:13:45;0.60;;;0.60;;
23206;SDS011;11773;52.570;13.052;2022-07-11T15:16:15;0.70;;;0.30;;
23206;SDS011;11773;52.570;13.052;2022-07-11T15:18:45;0.50;;;0.50;;